首页
METAR-TAF:

METAR-TAF

机场 :

奇罗, 南卡罗来纳州, 美国

纬度: 34-42-46N, 经度: 079-57-25W, 海拔: 73米

当前天气观测

该预报发布于23分钟前的09:55 UTC
风速6节,风向北转东北
温度 6°C
湿度 100%
气压 1022 hPa
能見度: 9.7公里
小雨

METAR: KCQW 150955Z AUTO 03006KT 6SM -RA 06/06 A3019 RMK AO2 P0004

时间: 05:18 (10:18 UTC)


TAF: 丢失

超过4000个机场的气象观测和天气预报(METAR&TAF报告)。

可查询的气象台以黄色和红色小点在地图上表示。

将鼠标移到小点上方,可查看气象台名称。

然后点击查看天气观测和预报。

如需切换地图:点击带黑十字的绿色按钮放大地图;点击带横线的绿色按钮缩小地图;或者点击绿色箭头查看邻近地区的地图。


METAR-TAF: